sensor_id;sensor_type;location;lat;lon;timestamp;P1;durP1;ratioP1;P2;durP2;ratioP2
22388;SDS011;11362;48.102;11.620;2022-07-23T00:02:17;6.27;;;5.80;;
22388;SDS011;11362;48.102;11.620;2022-07-23T00:04:42;6.20;;;5.70;;
22388;SDS011;11362;48.102;11.620;2022-07-23T00:07:07;6.13;;;5.73;;
22388;SDS011;11362;48.102;11.620;2022-07-23T00:09:32;5.93;;;5.43;;
22388;SDS011;11362;48.102;11.620;2022-07-23T00:11:58;6.20;;;5.70;;
22388;SDS011;11362;48.102;11.620;2022-07-23T00:14:23;6.27;;;5.80;;
22388;SDS011;11362;48.102;11.620;2022-07-23T00:16:48;5.63;;;5.30;;
22388;SDS011;11362;48.102;11.620;2022-07-23T00:19:14;5.77;;;5.37;;
22388;SDS011;11362;48.102;11.620;2022-07-23T00:21:39;6.20;;;5.70;;
22388;SDS011;11362;48.102;11.620;2022-07-23T00:24:04;6.30;;;5.80;;
22388;SDS011;11362;48.102;11.620;2022-07-23T00:26:30;5.77;;;5.37;;
22388;SDS011;11362;48.102;11.620;2022-07-23T00:28:55;6.37;;;5.87;;
22388;SDS011;11362;48.102;11.620;2022-07-23T00:31:20;5.93;;;5.53;;
22388;SDS011;11362;48.102;11.620;2022-07-23T00:33:46;5.90;;;5.40;;
22388;SDS011;11362;48.102;11.620;2022-07-23T00:36:11;6.00;;;5.60;;
22388;SDS011;11362;48.102;11.620;2022-07-23T00:38:36;5.70;;;5.30;;
22388;SDS011;11362;48.102;11.620;2022-07-23T00:41:02;5.60;;;5.20;;
22388;SDS011;11362;48.102;11.620;2022-07-23T00:43:27;5.93;;;5.43;;
22388;SDS011;11362;48.102;11.620;2022-07-23T00:45:52;6.37;;;5.97;;
22388;SDS011;11362;48.102;11.620;2022-07-23T00:48:18;5.83;;;5.33;;
22388;SDS011;11362;48.102;11.620;2022-07-23T00:50:43;6.13;;;5.53;;
22388;SDS011;11362;48.102;11.620;2022-07-23T00:53:08;5.80;;;5.40;;
22388;SDS011;11362;48.102;11.620;2022-07-23T00:55:35;6.33;;;5.83;;
22388;SDS011;11362;48.102;11.620;2022-07-23T00:58:01;5.70;;;5.30;;
22388;SDS011;11362;48.102;11.620;2022-07-23T01:00:26;5.30;;;5.00;;
22388;SDS011;11362;48.102;11.620;2022-07-23T01:02:52;5.87;;;5.47;;
22388;SDS011;11362;48.102;11.620;2022-07-23T01:05:17;5.80;;;5.40;;
22388;SDS011;11362;48.102;11.620;2022-07-23T01:07:43;5.73;;;5.20;;
22388;SDS011;11362;48.102;11.620;2022-07-23T01:10:08;6.00;;;5.60;;
22388;SDS011;11362;48.102;11.620;2022-07-23T01:12:34;5.23;;;4.93;;
22388;SDS011;11362;48.102;11.620;2022-07-23T01:15:00;5.57;;;5.17;;
22388;SDS011;11362;48.102;11.620;2022-07-23T01:17:25;6.20;;;5.70;;
22388;SDS011;11362;48.102;11.620;2022-07-23T01:19:51;5.93;;;5.53;;
22388;SDS011;11362;48.102;11.620;2022-07-23T01:22:17;6.23;;;5.80;;
22388;SDS011;11362;48.102;11.620;2022-07-23T01:24:44;5.83;;;5.43;;
22388;SDS011;11362;48.102;11.620;2022-07-23T01:27:09;5.50;;;5.10;;
22388;SDS011;11362;48.102;11.620;2022-07-23T01:29:35;5.70;;;5.30;;
22388;SDS011;11362;48.102;11.620;2022-07-23T01:32:00;5.53;;;5.13;;
22388;SDS011;11362;48.102;11.620;2022-07-23T01:34:25;5.57;;;5.23;;
22388;SDS011;11362;48.102;11.620;2022-07-23T01:36:51;5.57;;;5.17;;
22388;SDS011;11362;48.102;11.620;2022-07-23T01:39:16;5.03;;;4.73;;
22388;SDS011;11362;48.102;11.620;2022-07-23T01:41:41;5.03;;;4.73;;
22388;SDS011;11362;48.102;11.620;2022-07-23T01:44:07;4.80;;;4.50;;
22388;SDS011;11362;48.102;11.620;2022-07-23T01:46:32;6.23;;;5.63;;
22388;SDS011;11362;48.102;11.620;2022-07-23T01:48:57;5.67;;;5.23;;
22388;SDS011;11362;48.102;11.620;2022-07-23T01:51:23;5.50;;;5.10;;
22388;SDS011;11362;48.102;11.620;2022-07-23T01:53:48;5.70;;;5.40;;
22388;SDS011;11362;48.102;11.620;2022-07-23T01:56:14;5.90;;;5.50;;
22388;SDS011;11362;48.102;11.620;2022-07-23T01:58:39;5.40;;;4.97;;
22388;SDS011;11362;48.102;11.620;2022-07-23T02:01:04;5.27;;;4.90;;
22388;SDS011;11362;48.102;11.620;2022-07-23T02:03:30;4.97;;;4.57;;
22388;SDS011;11362;48.102;11.620;2022-07-23T02:05:55;5.27;;;4.97;;
22388;SDS011;11362;48.102;11.620;2022-07-23T02:08:20;5.37;;;4.93;;
22388;SDS011;11362;48.102;11.620;2022-07-23T02:10:45;4.83;;;4.53;;
22388;SDS011;11362;48.102;11.620;2022-07-23T02:13:11;5.00;;;4.70;;
22388;SDS011;11362;48.102;11.620;2022-07-23T02:15:36;5.87;;;5.40;;
22388;SDS011;11362;48.102;11.620;2022-07-23T02:18:02;5.40;;;5.00;;
22388;SDS011;11362;48.102;11.620;2022-07-23T02:20:27;5.30;;;4.93;;
22388;SDS011;11362;48.102;11.620;2022-07-23T02:22:53;5.17;;;4.77;;
22388;SDS011;11362;48.102;11.620;2022-07-23T02:25:18;5.00;;;4.70;;
22388;SDS011;11362;48.102;11.620;2022-07-23T02:27:43;5.23;;;4.93;;
22388;SDS011;11362;48.102;11.620;2022-07-23T02:30:09;5.27;;;4.90;;
22388;SDS011;11362;48.102;11.620;2022-07-23T02:32:35;5.00;;;4.57;;
22388;SDS011;11362;48.102;11.620;2022-07-23T02:35:00;5.20;;;4.80;;
22388;SDS011;11362;48.102;11.620;2022-07-23T02:37:26;5.27;;;4.87;;
22388;SDS011;11362;48.102;11.620;2022-07-23T02:39:51;4.60;;;4.30;;
22388;SDS011;11362;48.102;11.620;2022-07-23T02:42:17;5.40;;;5.10;;
22388;SDS011;11362;48.102;11.620;2022-07-23T02:44:42;4.97;;;4.67;;
22388;SDS011;11362;48.102;11.620;2022-07-23T02:47:08;4.90;;;4.60;;
22388;SDS011;11362;48.102;11.620;2022-07-23T02:49:33;4.90;;;4.60;;
22388;SDS011;11362;48.102;11.620;2022-07-23T02:51:59;5.13;;;4.73;;
22388;SDS011;11362;48.102;11.620;2022-07-23T02:54:24;5.10;;;4.77;;
22388;SDS011;11362;48.102;11.620;2022-07-23T02:56:49;4.80;;;4.50;;
22388;SDS011;11362;48.102;11.620;2022-07-23T02:59:15;4.57;;;4.27;;
22388;SDS011;11362;48.102;11.620;2022-07-23T03:01:40;4.60;;;4.30;;
22388;SDS011;11362;48.102;11.620;2022-07-23T03:04:05;4.83;;;4.53;;
22388;SDS011;11362;48.102;11.620;2022-07-23T03:06:30;5.13;;;4.73;;
22388;SDS011;11362;48.102;11.620;2022-07-23T03:08:56;4.90;;;4.60;;
22388;SDS011;11362;48.102;11.620;2022-07-23T03:11:21;4.90;;;4.57;;
22388;SDS011;11362;48.102;11.620;2022-07-23T03:13:46;5.10;;;4.80;;
22388;SDS011;11362;48.102;11.620;2022-07-23T03:16:12;4.77;;;4.40;;
22388;SDS011;11362;48.102;11.620;2022-07-23T03:18:37;4.43;;;4.23;;
22388;SDS011;11362;48.102;11.620;2022-07-23T03:21:02;4.50;;;4.20;;
22388;SDS011;11362;48.102;11.620;2022-07-23T03:23:28;4.97;;;4.67;;
22388;SDS011;11362;48.102;11.620;2022-07-23T03:25:53;4.87;;;4.50;;
22388;SDS011;11362;48.102;11.620;2022-07-23T03:28:18;4.50;;;4.20;;
22388;SDS011;11362;48.102;11.620;2022-07-23T03:30:44;4.33;;;4.13;;
22388;SDS011;11362;48.102;11.620;2022-07-23T03:33:11;4.60;;;4.30;;
22388;SDS011;11362;48.102;11.620;2022-07-23T03:35:36;4.60;;;4.30;;
22388;SDS011;11362;48.102;11.620;2022-07-23T03:38:01;4.67;;;4.37;;
22388;SDS011;11362;48.102;11.620;2022-07-23T03:40:26;4.10;;;3.80;;
22388;SDS011;11362;48.102;11.620;2022-07-23T03:42:52;5.07;;;4.67;;
22388;SDS011;11362;48.102;11.620;2022-07-23T03:45:17;4.53;;;4.17;;
22388;SDS011;11362;48.102;11.620;2022-07-23T03:47:43;3.77;;;3.57;;
22388;SDS011;11362;48.102;11.620;2022-07-23T03:50:08;4.27;;;4.07;;
22388;SDS011;11362;48.102;11.620;2022-07-23T03:52:34;4.70;;;4.50;;
22388;SDS011;11362;48.102;11.620;2022-07-23T03:54:59;3.93;;;3.73;;
22388;SDS011;11362;48.102;11.620;2022-07-23T03:57:24;4.37;;;4.07;;
22388;SDS011;11362;48.102;11.620;2022-07-23T03:59:50;4.13;;;3.83;;
22388;SDS011;11362;48.102;11.620;2022-07-23T04:02:15;4.47;;;4.17;;
22388;SDS011;11362;48.102;11.620;2022-07-23T04:04:40;4.70;;;4.40;;
22388;SDS011;11362;48.102;11.620;2022-07-23T04:07:06;4.30;;;4.10;;
22388;SDS011;11362;48.102;11.620;2022-07-23T04:09:31;4.10;;;3.80;;
22388;SDS011;11362;48.102;11.620;2022-07-23T04:11:56;4.43;;;4.10;;
22388;SDS011;11362;48.102;11.620;2022-07-23T04:14:21;4.30;;;4.00;;
22388;SDS011;11362;48.102;11.620;2022-07-23T04:16:47;4.00;;;3.80;;
22388;SDS011;11362;48.102;11.620;2022-07-23T04:19:13;3.77;;;3.57;;
22388;SDS011;11362;48.102;11.620;2022-07-23T04:21:38;4.27;;;3.97;;
22388;SDS011;11362;48.102;11.620;2022-07-23T04:24:04;4.37;;;4.07;;
22388;SDS011;11362;48.102;11.620;2022-07-23T04:26:29;4.40;;;4.10;;
22388;SDS011;11362;48.102;11.620;2022-07-23T04:28:54;4.30;;;3.93;;
22388;SDS011;11362;48.102;11.620;2022-07-23T04:31:20;4.20;;;4.00;;
22388;SDS011;11362;48.102;11.620;2022-07-23T04:33:45;4.37;;;4.07;;
22388;SDS011;11362;48.102;11.620;2022-07-23T04:36:10;4.07;;;3.87;;
22388;SDS011;11362;48.102;11.620;2022-07-23T04:38:36;4.10;;;3.90;;
22388;SDS011;11362;48.102;11.620;2022-07-23T04:41:01;3.73;;;3.53;;
22388;SDS011;11362;48.102;11.620;2022-07-23T04:43:26;4.03;;;3.73;;
22388;SDS011;11362;48.102;11.620;2022-07-23T04:45:52;4.57;;;4.27;;
22388;SDS011;11362;48.102;11.620;2022-07-23T04:48:17;3.73;;;3.53;;
22388;SDS011;11362;48.102;11.620;2022-07-23T04:50:42;3.93;;;3.63;;
22388;SDS011;11362;48.102;11.620;2022-07-23T04:53:08;4.33;;;3.97;;
22388;SDS011;11362;48.102;11.620;2022-07-23T04:55:33;3.90;;;3.63;;
22388;SDS011;11362;48.102;11.620;2022-07-23T04:57:58;4.07;;;3.77;;
22388;SDS011;11362;48.102;11.620;2022-07-23T05:00:23;3.93;;;3.73;;
22388;SDS011;11362;48.102;11.620;2022-07-23T05:02:49;4.00;;;3.80;;
22388;SDS011;11362;48.102;11.620;2022-07-23T05:05:14;4.27;;;3.97;;
22388;SDS011;11362;48.102;11.620;2022-07-23T05:07:39;4.43;;;4.07;;
22388;SDS011;11362;48.102;11.620;2022-07-23T05:10:05;4.67;;;4.10;;
22388;SDS011;11362;48.102;11.620;2022-07-23T05:12:30;4.07;;;3.83;;
22388;SDS011;11362;48.102;11.620;2022-07-23T05:14:56;4.00;;;3.70;;
22388;SDS011;11362;48.102;11.620;2022-07-23T05:17:21;3.70;;;3.50;;
22388;SDS011;11362;48.102;11.620;2022-07-23T05:19:46;4.20;;;3.90;;
22388;SDS011;11362;48.102;11.620;2022-07-23T05:22:12;3.57;;;3.37;;
22388;SDS011;11362;48.102;11.620;2022-07-23T05:24:37;3.47;;;3.27;;
22388;SDS011;11362;48.102;11.620;2022-07-23T05:27:02;4.63;;;4.33;;
22388;SDS011;11362;48.102;11.620;2022-07-23T05:29:28;4.20;;;3.90;;
22388;SDS011;11362;48.102;11.620;2022-07-23T05:31:53;3.67;;;3.47;;
22388;SDS011;11362;48.102;11.620;2022-07-23T05:34:18;3.87;;;3.67;;
22388;SDS011;11362;48.102;11.620;2022-07-23T05:36:43;4.00;;;3.80;;
22388;SDS011;11362;48.102;11.620;2022-07-23T05:39:09;4.00;;;3.60;;
22388;SDS011;11362;48.102;11.620;2022-07-23T05:41:34;4.10;;;3.90;;
22388;SDS011;11362;48.102;11.620;2022-07-23T05:44:00;3.83;;;3.63;;
22388;SDS011;11362;48.102;11.620;2022-07-23T05:46:25;4.17;;;3.87;;
22388;SDS011;11362;48.102;11.620;2022-07-23T05:48:50;3.40;;;3.20;;
22388;SDS011;11362;48.102;11.620;2022-07-23T05:51:19;4.00;;;3.70;;
22388;SDS011;11362;48.102;11.620;2022-07-23T05:53:49;3.60;;;3.40;;
22388;SDS011;11362;48.102;11.620;2022-07-23T05:56:15;3.77;;;3.57;;
22388;SDS011;11362;48.102;11.620;2022-07-23T05:58:41;4.17;;;3.97;;
22388;SDS011;11362;48.102;11.620;2022-07-23T06:01:06;3.80;;;3.60;;
22388;SDS011;11362;48.102;11.620;2022-07-23T06:03:32;4.10;;;3.80;;
22388;SDS011;11362;48.102;11.620;2022-07-23T06:05:57;4.40;;;4.10;;
22388;SDS011;11362;48.102;11.620;2022-07-23T06:08:22;3.77;;;3.50;;
22388;SDS011;11362;48.102;11.620;2022-07-23T06:10:47;4.30;;;4.10;;
22388;SDS011;11362;48.102;11.620;2022-07-23T06:13:13;4.03;;;3.83;;
22388;SDS011;11362;48.102;11.620;2022-07-23T06:15:38;3.60;;;3.40;;
22388;SDS011;11362;48.102;11.620;2022-07-23T06:18:03;4.77;;;4.30;;
22388;SDS011;11362;48.102;11.620;2022-07-23T06:20:29;4.27;;;3.77;;
22388;SDS011;11362;48.102;11.620;2022-07-23T06:22:54;4.83;;;4.33;;
22388;SDS011;11362;48.102;11.620;2022-07-23T06:25:19;4.73;;;4.30;;
22388;SDS011;11362;48.102;11.620;2022-07-23T06:27:45;5.80;;;4.33;;
22388;SDS011;11362;48.102;11.620;2022-07-23T06:30:10;4.40;;;4.00;;
22388;SDS011;11362;48.102;11.620;2022-07-23T06:32:36;8.37;;;4.27;;
22388;SDS011;11362;48.102;11.620;2022-07-23T06:35:02;12.77;;;4.73;;
22388;SDS011;11362;48.102;11.620;2022-07-23T06:37:27;9.60;;;4.60;;
22388;SDS011;11362;48.102;11.620;2022-07-23T06:39:52;15.13;;;5.10;;
22388;SDS011;11362;48.102;11.620;2022-07-23T06:42:18;5.50;;;4.97;;
22388;SDS011;11362;48.102;11.620;2022-07-23T06:44:43;7.80;;;5.10;;
22388;SDS011;11362;48.102;11.620;2022-07-23T06:47:08;14.70;;;5.80;;
22388;SDS011;11362;48.102;11.620;2022-07-23T06:49:34;8.40;;;5.30;;
22388;SDS011;11362;48.102;11.620;2022-07-23T06:51:59;5.33;;;4.73;;
22388;SDS011;11362;48.102;11.620;2022-07-23T06:54:24;6.80;;;5.23;;
22388;SDS011;11362;48.102;11.620;2022-07-23T06:56:49;5.87;;;5.40;;
22388;SDS011;11362;48.102;11.620;2022-07-23T06:59:15;6.30;;;5.50;;
22388;SDS011;11362;48.102;11.620;2022-07-23T07:01:40;5.07;;;4.67;;
22388;SDS011;11362;48.102;11.620;2022-07-23T07:04:05;5.37;;;5.00;;
22388;SDS011;11362;48.102;11.620;2022-07-23T07:06:31;6.83;;;5.53;;
22388;SDS011;11362;48.102;11.620;2022-07-23T07:08:56;6.83;;;5.30;;
22388;SDS011;11362;48.102;11.620;2022-07-23T07:11:22;9.17;;;5.63;;
22388;SDS011;11362;48.102;11.620;2022-07-23T07:13:47;7.80;;;5.47;;
22388;SDS011;11362;48.102;11.620;2022-07-23T07:16:12;11.87;;;5.93;;
22388;SDS011;11362;48.102;11.620;2022-07-23T07:18:37;7.93;;;5.83;;
22388;SDS011;11362;48.102;11.620;2022-07-23T07:21:03;11.43;;;5.70;;
22388;SDS011;11362;48.102;11.620;2022-07-23T07:23:28;9.10;;;5.80;;
22388;SDS011;11362;48.102;11.620;2022-07-23T07:25:53;8.43;;;5.37;;
22388;SDS011;11362;48.102;11.620;2022-07-23T07:28:19;6.30;;;5.47;;
22388;SDS011;11362;48.102;11.620;2022-07-23T07:30:44;10.00;;;4.83;;
22388;SDS011;11362;48.102;11.620;2022-07-23T07:33:09;6.93;;;5.43;;
22388;SDS011;11362;48.102;11.620;2022-07-23T07:35:35;13.27;;;5.83;;
22388;SDS011;11362;48.102;11.620;2022-07-23T07:38:00;6.40;;;5.67;;
22388;SDS011;11362;48.102;11.620;2022-07-23T07:40:26;6.10;;;5.07;;
22388;SDS011;11362;48.102;11.620;2022-07-23T07:42:52;8.10;;;5.70;;
22388;SDS011;11362;48.102;11.620;2022-07-23T07:45:22;5.57;;;5.17;;
22388;SDS011;11362;48.102;11.620;2022-07-23T07:47:49;5.97;;;5.37;;
22388;SDS011;11362;48.102;11.620;2022-07-23T07:50:15;6.47;;;5.30;;
22388;SDS011;11362;48.102;11.620;2022-07-23T07:52:40;8.47;;;5.40;;
22388;SDS011;11362;48.102;11.620;2022-07-23T07:55:07;6.27;;;5.77;;
22388;SDS011;11362;48.102;11.620;2022-07-23T07:57:33;8.27;;;5.40;;
22388;SDS011;11362;48.102;11.620;2022-07-23T07:59:59;6.00;;;5.50;;
22388;SDS011;11362;48.102;11.620;2022-07-23T08:02:24;5.60;;;5.10;;
22388;SDS011;11362;48.102;11.620;2022-07-23T08:04:49;9.00;;;5.43;;
22388;SDS011;11362;48.102;11.620;2022-07-23T08:07:15;6.30;;;5.60;;
22388;SDS011;11362;48.102;11.620;2022-07-23T08:09:41;9.23;;;5.50;;
22388;SDS011;11362;48.102;11.620;2022-07-23T08:12:07;11.33;;;6.13;;
22388;SDS011;11362;48.102;11.620;2022-07-23T08:14:32;6.20;;;5.50;;
22388;SDS011;11362;48.102;11.620;2022-07-23T08:16:58;10.43;;;5.77;;
22388;SDS011;11362;48.102;11.620;2022-07-23T08:19:23;6.93;;;5.50;;
22388;SDS011;11362;48.102;11.620;2022-07-23T08:21:49;7.03;;;5.93;;
22388;SDS011;11362;48.102;11.620;2022-07-23T08:24:14;6.90;;;5.40;;
22388;SDS011;11362;48.102;11.620;2022-07-23T08:26:39;6.87;;;5.17;;
22388;SDS011;11362;48.102;11.620;2022-07-23T08:29:04;6.70;;;5.93;;
22388;SDS011;11362;48.102;11.620;2022-07-23T08:31:30;6.77;;;5.43;;
22388;SDS011;11362;48.102;11.620;2022-07-23T08:33:56;8.67;;;5.57;;
22388;SDS011;11362;48.102;11.620;2022-07-23T08:36:21;6.20;;;5.63;;
22388;SDS011;11362;48.102;11.620;2022-07-23T08:38:46;8.60;;;5.60;;
22388;SDS011;11362;48.102;11.620;2022-07-23T08:41:11;12.80;;;5.00;;
22388;SDS011;11362;48.102;11.620;2022-07-23T08:43:37;9.20;;;6.10;;
22388;SDS011;11362;48.102;11.620;2022-07-23T08:46:03;10.80;;;6.23;;
22388;SDS011;11362;48.102;11.620;2022-07-23T08:48:29;6.77;;;5.20;;
22388;SDS011;11362;48.102;11.620;2022-07-23T08:50:57;8.27;;;6.03;;
22388;SDS011;11362;48.102;11.620;2022-07-23T08:53:24;6.40;;;5.30;;
22388;SDS011;11362;48.102;11.620;2022-07-23T08:55:52;13.30;;;6.00;;
22388;SDS011;11362;48.102;11.620;2022-07-23T08:58:19;9.83;;;6.27;;
22388;SDS011;11362;48.102;11.620;2022-07-23T09:00:47;16.00;;;5.80;;
22388;SDS011;11362;48.102;11.620;2022-07-23T09:03:20;6.23;;;5.23;;
22388;SDS011;11362;48.102;11.620;2022-07-23T09:05:47;7.77;;;4.93;;
22388;SDS011;11362;48.102;11.620;2022-07-23T09:08:18;11.90;;;6.23;;
22388;SDS011;11362;48.102;11.620;2022-07-23T09:10:52;7.77;;;5.33;;
22388;SDS011;11362;48.102;11.620;2022-07-23T09:16:07;9.37;;;5.87;;
22388;SDS011;11362;48.102;11.620;2022-07-23T09:18:36;7.00;;;5.30;;
22388;SDS011;11362;48.102;11.620;2022-07-23T09:21:11;10.70;;;6.00;;
22388;SDS011;11362;48.102;11.620;2022-07-23T09:26:18;7.07;;;6.10;;
22388;SDS011;11362;48.102;11.620;2022-07-23T09:28:54;6.13;;;5.50;;
22388;SDS011;11362;48.102;11.620;2022-07-23T09:31:20;7.07;;;4.63;;
22388;SDS011;11362;48.102;11.620;2022-07-23T09:33:45;5.90;;;5.30;;
22388;SDS011;11362;48.102;11.620;2022-07-23T09:36:11;6.40;;;5.23;;
22388;SDS011;11362;48.102;11.620;2022-07-23T09:38:36;5.67;;;4.97;;
22388;SDS011;11362;48.102;11.620;2022-07-23T09:41:13;6.77;;;5.20;;
22388;SDS011;11362;48.102;11.620;2022-07-23T09:43:39;5.67;;;5.20;;
22388;SDS011;11362;48.102;11.620;2022-07-23T09:46:20;6.97;;;5.20;;
22388;SDS011;11362;48.102;11.620;2022-07-23T09:48:54;6.87;;;5.67;;
22388;SDS011;11362;48.102;11.620;2022-07-23T09:51:20;5.90;;;5.03;;
22388;SDS011;11362;48.102;11.620;2022-07-23T09:53:45;5.87;;;4.80;;
22388;SDS011;11362;48.102;11.620;2022-07-23T09:56:11;6.57;;;5.07;;
22388;SDS011;11362;48.102;11.620;2022-07-23T09:58:39;6.47;;;5.20;;
22388;SDS011;11362;48.102;11.620;2022-07-23T10:01:05;6.63;;;4.90;;
22388;SDS011;11362;48.102;11.620;2022-07-23T10:03:30;5.43;;;4.97;;
22388;SDS011;11362;48.102;11.620;2022-07-23T10:05:56;5.77;;;5.27;;
22388;SDS011;11362;48.102;11.620;2022-07-23T10:08:21;5.53;;;4.83;;
22388;SDS011;11362;48.102;11.620;2022-07-23T10:10:48;5.10;;;4.80;;
22388;SDS011;11362;48.102;11.620;2022-07-23T10:13:15;6.83;;;4.90;;
22388;SDS011;11362;48.102;11.620;2022-07-23T10:15:41;5.87;;;5.07;;
22388;SDS011;11362;48.102;11.620;2022-07-23T10:18:07;6.10;;;5.10;;
22388;SDS011;11362;48.102;11.620;2022-07-23T10:20:35;9.20;;;5.10;;
22388;SDS011;11362;48.102;11.620;2022-07-23T10:23:19;5.40;;;4.80;;
22388;SDS011;11362;48.102;11.620;2022-07-23T10:25:51;6.93;;;5.37;;
22388;SDS011;11362;48.102;11.620;2022-07-23T10:37:17;8.77;;;4.50;;
22388;SDS011;11362;48.102;11.620;2022-07-23T10:39:47;7.33;;;4.53;;
22388;SDS011;11362;48.102;11.620;2022-07-23T10:42:14;10.03;;;4.93;;
22388;SDS011;11362;48.102;11.620;2022-07-23T10:44:44;6.20;;;4.60;;
22388;SDS011;11362;48.102;11.620;2022-07-23T10:47:21;5.17;;;4.53;;
22388;SDS011;11362;48.102;11.620;2022-07-23T10:49:52;12.50;;;4.97;;
22388;SDS011;11362;48.102;11.620;2022-07-23T10:52:18;8.50;;;4.83;;
22388;SDS011;11362;48.102;11.620;2022-07-23T10:57:31;6.47;;;4.97;;
22388;SDS011;11362;48.102;11.620;2022-07-23T11:00:13;6.77;;;4.53;;
22388;SDS011;11362;48.102;11.620;2022-07-23T11:02:40;6.20;;;4.63;;
22388;SDS011;11362;48.102;11.620;2022-07-23T11:05:11;5.50;;;5.00;;
22388;SDS011;11362;48.102;11.620;2022-07-23T11:10:33;10.87;;;5.40;;
22388;SDS011;11362;48.102;11.620;2022-07-23T11:21:39;5.60;;;4.37;;
22388;SDS011;11362;48.102;11.620;2022-07-23T11:24:08;7.00;;;4.80;;
22388;SDS011;11362;48.102;11.620;2022-07-23T11:31:55;4.57;;;4.00;;
22388;SDS011;11362;48.102;11.620;2022-07-23T11:37:32;8.70;;;4.60;;
22388;SDS011;11362;48.102;11.620;2022-07-23T11:40:08;6.87;;;4.53;;
22388;SDS011;11362;48.102;11.620;2022-07-23T11:42:36;6.33;;;4.60;;
22388;SDS011;11362;48.102;11.620;2022-07-23T11:45:03;4.80;;;4.40;;
22388;SDS011;11362;48.102;11.620;2022-07-23T11:47:30;9.07;;;4.53;;
22388;SDS011;11362;48.102;11.620;2022-07-23T11:49:59;7.23;;;4.87;;
22388;SDS011;11362;48.102;11.620;2022-07-23T11:52:26;5.47;;;4.50;;
22388;SDS011;11362;48.102;11.620;2022-07-23T11:54:54;4.97;;;4.50;;
22388;SDS011;11362;48.102;11.620;2022-07-23T11:57:28;4.80;;;4.33;;
22388;SDS011;11362;48.102;11.620;2022-07-23T11:59:56;4.40;;;4.10;;
22388;SDS011;11362;48.102;11.620;2022-07-23T12:02:25;4.43;;;4.03;;
22388;SDS011;11362;48.102;11.620;2022-07-23T12:04:51;4.30;;;3.90;;
22388;SDS011;11362;48.102;11.620;2022-07-23T12:07:27;4.97;;;4.50;;
22388;SDS011;11362;48.102;11.620;2022-07-23T12:10:04;4.80;;;4.50;;
22388;SDS011;11362;48.102;11.620;2022-07-23T12:12:43;5.07;;;4.53;;
22388;SDS011;11362;48.102;11.620;2022-07-23T12:15:14;5.37;;;4.87;;
22388;SDS011;11362;48.102;11.620;2022-07-23T12:17:42;5.10;;;4.70;;
22388;SDS011;11362;48.102;11.620;2022-07-23T12:20:22;5.23;;;4.73;;
22388;SDS011;11362;48.102;11.620;2022-07-23T12:22:54;5.60;;;5.10;;
22388;SDS011;11362;48.102;11.620;2022-07-23T12:25:22;5.03;;;4.60;;
22388;SDS011;11362;48.102;11.620;2022-07-23T12:28:05;4.87;;;4.50;;
22388;SDS011;11362;48.102;11.620;2022-07-23T12:33:03;6.20;;;4.70;;
22388;SDS011;11362;48.102;11.620;2022-07-23T12:35:30;9.23;;;5.30;;
22388;SDS011;11362;48.102;11.620;2022-07-23T12:38:04;16.60;;;5.30;;
22388;SDS011;11362;48.102;11.620;2022-07-23T12:40:32;12.70;;;5.20;;
22388;SDS011;11362;48.102;11.620;2022-07-23T12:43:01;9.83;;;5.50;;
22388;SDS011;11362;48.102;11.620;2022-07-23T12:45:53;12.13;;;5.37;;
22388;SDS011;11362;48.102;11.620;2022-07-23T12:50:50;17.67;;;5.63;;
22388;SDS011;11362;48.102;11.620;2022-07-23T12:53:19;11.47;;;5.93;;
22388;SDS011;11362;48.102;11.620;2022-07-23T12:55:47;10.30;;;5.80;;
22388;SDS011;11362;48.102;11.620;2022-07-23T12:58:14;11.27;;;5.30;;
22388;SDS011;11362;48.102;11.620;2022-07-23T13:00:54;22.20;;;5.90;;
22388;SDS011;11362;48.102;11.620;2022-07-23T13:03:29;8.47;;;5.23;;
22388;SDS011;11362;48.102;11.620;2022-07-23T13:05:57;8.03;;;5.20;;
22388;SDS011;11362;48.102;11.620;2022-07-23T13:08:23;13.20;;;5.33;;
22388;SDS011;11362;48.102;11.620;2022-07-23T13:10:49;14.80;;;5.43;;
22388;SDS011;11362;48.102;11.620;2022-07-23T13:13:15;6.30;;;5.10;;
22388;SDS011;11362;48.102;11.620;2022-07-23T13:15:40;7.27;;;4.80;;
22388;SDS011;11362;48.102;11.620;2022-07-23T13:18:06;5.83;;;4.93;;
22388;SDS011;11362;48.102;11.620;2022-07-23T13:20:31;11.00;;;4.77;;
22388;SDS011;11362;48.102;11.620;2022-07-23T13:22:57;6.40;;;5.00;;
22388;SDS011;11362;48.102;11.620;2022-07-23T13:25:22;9.57;;;5.50;;
22388;SDS011;11362;48.102;11.620;2022-07-23T13:27:48;8.20;;;5.20;;
22388;SDS011;11362;48.102;11.620;2022-07-23T13:30:13;7.77;;;5.10;;
22388;SDS011;11362;48.102;11.620;2022-07-23T13:32:38;6.33;;;4.63;;
22388;SDS011;11362;48.102;11.620;2022-07-23T13:35:04;6.77;;;4.40;;
22388;SDS011;11362;48.102;11.620;2022-07-23T13:37:29;8.43;;;5.33;;
22388;SDS011;11362;48.102;11.620;2022-07-23T13:39:55;5.40;;;4.83;;
22388;SDS011;11362;48.102;11.620;2022-07-23T13:42:20;5.63;;;5.10;;
22388;SDS011;11362;48.102;11.620;2022-07-23T13:44:45;5.33;;;4.77;;
22388;SDS011;11362;48.102;11.620;2022-07-23T13:47:11;6.10;;;4.90;;
22388;SDS011;11362;48.102;11.620;2022-07-23T13:49:36;5.43;;;4.63;;
22388;SDS011;11362;48.102;11.620;2022-07-23T13:52:02;6.33;;;4.70;;
22388;SDS011;11362;48.102;11.620;2022-07-23T13:54:29;5.07;;;4.57;;
22388;SDS011;11362;48.102;11.620;2022-07-23T13:56:54;5.50;;;5.00;;
22388;SDS011;11362;48.102;11.620;2022-07-23T13:59:19;5.80;;;5.10;;
22388;SDS011;11362;48.102;11.620;2022-07-23T14:01:45;5.57;;;5.07;;
22388;SDS011;11362;48.102;11.620;2022-07-23T14:04:10;5.07;;;4.53;;
22388;SDS011;11362;48.102;11.620;2022-07-23T14:06:36;6.13;;;5.10;;
22388;SDS011;11362;48.102;11.620;2022-07-23T14:09:01;5.97;;;4.40;;
22388;SDS011;11362;48.102;11.620;2022-07-23T14:11:27;5.17;;;4.77;;
22388;SDS011;11362;48.102;11.620;2022-07-23T14:13:52;4.97;;;4.50;;
22388;SDS011;11362;48.102;11.620;2022-07-23T14:16:17;5.00;;;4.63;;
22388;SDS011;11362;48.102;11.620;2022-07-23T14:18:43;4.60;;;4.20;;
22388;SDS011;11362;48.102;11.620;2022-07-23T14:21:08;5.70;;;5.10;;
22388;SDS011;11362;48.102;11.620;2022-07-23T14:23:33;5.50;;;5.00;;
22388;SDS011;11362;48.102;11.620;2022-07-23T14:25:59;4.73;;;4.43;;
22388;SDS011;11362;48.102;11.620;2022-07-23T14:28:24;5.43;;;4.93;;
22388;SDS011;11362;48.102;11.620;2022-07-23T14:30:49;4.73;;;4.40;;
22388;SDS011;11362;48.102;11.620;2022-07-23T14:33:15;4.93;;;4.37;;
22388;SDS011;11362;48.102;11.620;2022-07-23T14:35:40;4.87;;;4.47;;
22388;SDS011;11362;48.102;11.620;2022-07-23T14:38:05;5.30;;;4.90;;
22388;SDS011;11362;48.102;11.620;2022-07-23T14:40:31;7.33;;;4.53;;
22388;SDS011;11362;48.102;11.620;2022-07-23T14:42:56;5.33;;;4.83;;
22388;SDS011;11362;48.102;11.620;2022-07-23T14:45:21;5.13;;;4.30;;
22388;SDS011;11362;48.102;11.620;2022-07-23T14:47:47;5.90;;;4.80;;
22388;SDS011;11362;48.102;11.620;2022-07-23T14:50:12;4.70;;;4.30;;
22388;SDS011;11362;48.102;11.620;2022-07-23T14:52:37;4.70;;;4.40;;
22388;SDS011;11362;48.102;11.620;2022-07-23T14:55:03;5.07;;;4.67;;
22388;SDS011;11362;48.102;11.620;2022-07-23T14:57:28;4.73;;;4.43;;
22388;SDS011;11362;48.102;11.620;2022-07-23T14:59:54;5.40;;;4.90;;
22388;SDS011;11362;48.102;11.620;2022-07-23T15:02:19;4.30;;;4.00;;
22388;SDS011;11362;48.102;11.620;2022-07-23T15:04:44;4.73;;;4.43;;
22388;SDS011;11362;48.102;11.620;2022-07-23T15:07:09;4.60;;;4.30;;
22388;SDS011;11362;48.102;11.620;2022-07-23T15:09:35;4.90;;;4.50;;
22388;SDS011;11362;48.102;11.620;2022-07-23T15:12:00;4.93;;;4.53;;